Flight Track Log - Related Links

Times and Time Zones

All times are in EDT time to prevent confusion due to time zone crossing. See the JBU128 flight status page for this flight to view local times or setup timezone preferences in your user account.

Time Position Orientation Groundspeed Altitude Reporting Facility
EDT Latitude Longitude Course Direction KTS MPH feet Rate Location/Type
Sun 11:03:29 PM 40.6167 -73.8667 14° North 182 209 2,900  Level New York TRACON
Sun 11:04:00 PM 40.8759 -73.6333 North  Level FlightAware Approximate
Sun 11:05:00 PM 40.9636 -73.5932 21° North  Level FlightAware Approximate
Sun 11:05:42 PM 40.6006 -73.7519 100° East 135 155 8,800  Level Boston Center
Sun 11:06:00 PM 41.0492 -73.5450 27° Northeast  Level FlightAware Approximate
Sun 11:06:42 PM 40.6700 -73.6797 38° Northeast 217 250 10,900  Level Boston Center
Sun 11:07:00 PM 41.1324 -73.4896 27° Northeast  Level FlightAware Approximate
Sun 11:07:42 PM 40.7686 -73.6375 18° North 300 345 11,400  Level Boston Center
Sun 11:08:00 PM 41.2186 -73.4438 14° North  Level FlightAware Approximate
Sun 11:08:42 PM 40.8689 -73.5928 19° North 337 388 11,900  Level Boston Center
Sun 11:09:42 PM 40.9675 -73.5478 19° North 355 409 12,700 1,050 Climbing Boston Center
Sun 11:10:42 PM 41.0678 -73.5000 20° North 376 433 14,000 1,250 Climbing Boston Center
Sun 11:11:42 PM 41.1831 -73.4494 18° North 389 448 15,200 1,550 Climbing Boston Center
Sun 11:12:42 PM 41.2772 -73.4067 19° North 389 448 17,100 2,000 Climbing Boston Center
Sun 11:13:42 PM 41.3858 -73.3586 18° North 395 455 19,200 1,900 Climbing Boston Center
Sun 11:14:42 PM 41.4947 -73.2964 23° Northeast 408 470 20,900 900 Climbing Boston Center
Sun 11:15:42 PM 41.6117 -73.2842 North 408 470 21,000 50 Climbing Boston Center
Sun 11:16:42 PM 41.7200 -73.2911 357° North 402 463 21,000  Level Boston Center
Sun 11:17:42 PM 41.8344 -73.2956 358° North 402 463 21,000  Level Boston Center
Sun 11:18:42 PM 41.9469 -73.3025 357° North 402 463 21,000  Level Boston Center
Sun 11:19:42 PM 42.0636 -73.3069 358° North 407 468 21,000  Level Boston Center
Sun 11:20:42 PM 42.1783 -73.3114 358° North 407 468 21,000  Level Boston Center
Sun 11:21:42 PM 42.2950 -73.3186 357° North 407 468 21,000  Level Boston Center
Sun 11:22:42 PM 42.4136 -73.3147 North 412 474 21,000  Level Boston Center
Sun 11:23:42 PM 42.5283 -73.3192 358° North 412 474 21,000  Level Boston Center
Sun 11:24:42 PM 42.6533 -73.3350 355° North 412 474 21,000  Level Boston Center
Sun 11:25:42 PM 42.7700 -73.3367 359° North 412 474 21,000  Level Boston Center
Sun 11:26:42 PM 42.8928 -73.3442 357° North 422 486 21,000  Level Boston Center
Sun 11:27:42 PM 43.0117 -73.3458 359° North 422 486 21,000  Level Boston Center
Sun 11:28:42 PM 43.1325 -73.3306 North 422 486 21,000  Level Boston Center
Sun 11:29:42 PM 43.2514 -73.3153 North 422 486 21,000  Level Boston Center
Sun 11:30:42 PM 43.3725 -73.2969 North 422 486 21,000 -350 Level Boston Center
Sun 11:31:42 PM 43.4769 -73.2842 North 422 486 20,300 -1,000 Descending Boston Center
Sun 11:32:42 PM 43.5958 -73.2686 North 422 486 19,000 -1,500 Descending Boston Center
Sun 11:33:42 PM 43.7083 -73.2558 North 422 486 17,300 -1,650 Descending Boston Center
Sun 11:34:42 PM 43.8000 -73.2425 North 416 479 15,700 -1,950 Descending Boston Center
Sun 11:35:42 PM 43.9272 -73.2269 North 396 456 13,400 -2,300 Descending Boston Center
Sun 11:36:42 PM 44.0419 -73.2111 North 382 440 11,100 -1,200 Descending Boston Center
Sun 11:37:42 PM 44.1400 -73.1981 North 364 419 11,000 -150 Descending Boston Center
Sun 11:38:42 PM 44.2336 -73.2108 354° North 344 396 10,800 -750 Descending Boston Center
Sun 11:39:42 PM 44.3086 -73.2350 347° North 298 343 9,500 -1,800 Descending Boston Center
Sun 11:40:42 PM 44.3792 -73.2678 342° North 272 313 7,200 -2,200 Descending Boston Center
Sun 11:41:42 PM 44.4372 -73.3181 328° Northwest 254 292 5,100 -2,150 Descending Boston Center
Sun 11:42:42 PM 44.4950 -73.3683 328° Northwest 244 281 2,900 -1,300 Descending Boston Center
Sun 11:43:42 PM 44.5597 -73.3608 North 231 266 2,500 -350 Descending Boston Center
Sun 11:44:42 PM 44.5542 -73.2850 96° East 172 198 2,200 -500 Descending Boston Center
Sun 11:45:42 PM 44.5192 -73.2292 131° Southeast 146 168 1,500 -700 Descending Boston Center
Sun 11:46:42 PM 44.4922 -73.1881 133° Southeast 153 176 800 -700 Descending Boston Center

Login

Don't have an account? Register now (free) for customized features, flight alerts, and more!